sensor_id;sensor_type;location;lat;lon;timestamp;pressure;altitude;pressure_sealevel;temperature;humidity
54918;BME280;40818;50.562;7.454;2023-05-25T00:07:34;98450.66;;;6.49;100.00
54918;BME280;40818;50.562;7.454;2023-05-25T00:17:38;98452.78;;;6.61;100.00
54918;BME280;40818;50.562;7.454;2023-05-25T00:27:44;98446.56;;;6.67;100.00
54918;BME280;40818;50.562;7.454;2023-05-25T00:37:48;98451.94;;;6.61;100.00
54918;BME280;40818;50.562;7.454;2023-05-25T00:47:54;98444.84;;;6.44;100.00
54918;BME280;40818;50.562;7.454;2023-05-25T00:57:59;98438.78;;;6.21;100.00
54918;BME280;40818;50.562;7.454;2023-05-25T01:08:08;98427.28;;;6.30;100.00
54918;BME280;40818;50.562;7.454;2023-05-25T01:18:14;98423.00;;;6.30;100.00
54918;BME280;40818;50.562;7.454;2023-05-25T01:28:23;98420.25;;;6.35;100.00
54918;BME280;40818;50.562;7.454;2023-05-25T01:38:30;98446.16;;;6.32;100.00
54918;BME280;40818;50.562;7.454;2023-05-25T01:48:44;98446.28;;;6.27;100.00
54918;BME280;40818;50.562;7.454;2023-05-25T01:58:53;98447.34;;;6.22;100.00
54918;BME280;40818;50.562;7.454;2023-05-25T02:09:00;98447.59;;;6.15;100.00
54918;BME280;40818;50.562;7.454;2023-05-25T02:19:04;98448.19;;;5.97;100.00
54918;BME280;40818;50.562;7.454;2023-05-25T02:29:10;98436.28;;;5.94;100.00
54918;BME280;40818;50.562;7.454;2023-05-25T02:39:13;98436.47;;;5.88;100.00
54918;BME280;40818;50.562;7.454;2023-05-25T02:49:19;98431.22;;;5.66;100.00
54918;BME280;40818;50.562;7.454;2023-05-25T02:59:23;98448.69;;;5.58;100.00
54918;BME280;40818;50.562;7.454;2023-05-25T03:09:29;98459.78;;;5.60;100.00
54918;BME280;40818;50.562;7.454;2023-05-25T03:19:34;98470.22;;;5.55;100.00
54918;BME280;40818;50.562;7.454;2023-05-25T03:29:40;98473.25;;;5.41;100.00
54918;BME280;40818;50.562;7.454;2023-05-25T03:39:44;98485.13;;;5.19;100.00
54918;BME280;40818;50.562;7.454;2023-05-25T03:49:50;98487.88;;;5.14;100.00
54918;BME280;40818;50.562;7.454;2023-05-25T03:59:54;98482.50;;;5.20;100.00
54918;BME280;40818;50.562;7.454;2023-05-25T04:10:00;98494.06;;;5.35;100.00
54918;BME280;40818;50.562;7.454;2023-05-25T04:20:05;98487.25;;;5.59;100.00
54918;BME280;40818;50.562;7.454;2023-05-25T04:30:13;98492.53;;;5.81;100.00
54918;BME280;40818;50.562;7.454;2023-05-25T04:40:27;98504.84;;;6.00;100.00
54918;BME280;40818;50.562;7.454;2023-05-25T04:50:35;98528.75;;;6.29;100.00
54918;BME280;40818;50.562;7.454;2023-05-25T05:00:39;98539.22;;;6.49;100.00
54918;BME280;40818;50.562;7.454;2023-05-25T05:10:46;98549.56;;;6.95;100.00
54918;BME280;40818;50.562;7.454;2023-05-25T05:20:50;98554.50;;;7.47;100.00
54918;BME280;40818;50.562;7.454;2023-05-25T05:31:00;98563.22;;;8.08;100.00
54918;BME280;40818;50.562;7.454;2023-05-25T05:41:04;98581.72;;;8.61;100.00
54918;BME280;40818;50.562;7.454;2023-05-25T05:51:15;98597.25;;;9.56;100.00
54918;BME280;40818;50.562;7.454;2023-05-25T06:01:19;98601.06;;;10.38;100.00
54918;BME280;40818;50.562;7.454;2023-05-25T06:11:26;98597.34;;;10.77;100.00
54918;BME280;40818;50.562;7.454;2023-05-25T06:21:30;98611.16;;;11.43;100.00
54918;BME280;40818;50.562;7.454;2023-05-25T06:31:36;98613.53;;;12.10;100.00
54918;BME280;40818;50.562;7.454;2023-05-25T06:41:40;98608.22;;;12.56;97.50
54918;BME280;40818;50.562;7.454;2023-05-25T06:51:46;98615.94;;;13.01;92.90
54918;BME280;40818;50.562;7.454;2023-05-25T07:01:50;98632.34;;;13.74;88.46
54918;BME280;40818;50.562;7.454;2023-05-25T07:11:58;98624.56;;;14.40;81.68
54918;BME280;40818;50.562;7.454;2023-05-25T07:22:01;98627.97;;;14.67;82.12
54918;BME280;40818;50.562;7.454;2023-05-25T07:32:10;98626.88;;;14.96;80.21
54918;BME280;40818;50.562;7.454;2023-05-25T07:42:13;98619.25;;;15.06;78.60
54918;BME280;40818;50.562;7.454;2023-05-25T07:52:22;98621.25;;;16.00;76.49
54918;BME280;40818;50.562;7.454;2023-05-25T08:02:26;98616.44;;;17.45;68.42
54918;BME280;40818;50.562;7.454;2023-05-25T08:12:33;98628.66;;;18.95;61.09
54918;BME280;40818;50.562;7.454;2023-05-25T08:22:37;98619.34;;;21.26;53.74
54918;BME280;40818;50.562;7.454;2023-05-25T08:32:43;98630.25;;;21.41;54.08
54918;BME280;40818;50.562;7.454;2023-05-25T08:42:46;98622.25;;;22.14;50.34
54918;BME280;40818;50.562;7.454;2023-05-25T08:52:54;98618.69;;;20.76;45.68
54918;BME280;40818;50.562;7.454;2023-05-25T09:03:05;98622.94;;;19.81;46.85
54918;BME280;40818;50.562;7.454;2023-05-25T09:13:11;98623.63;;;19.93;47.47
54918;BME280;40818;50.562;7.454;2023-05-25T09:23:14;98624.19;;;20.93;47.44
54918;BME280;40818;50.562;7.454;2023-05-25T09:33:21;98625.88;;;22.13;44.05
54918;BME280;40818;50.562;7.454;2023-05-25T09:43:25;98625.16;;;21.93;44.15
54918;BME280;40818;50.562;7.454;2023-05-25T09:53:31;98624.16;;;22.48;41.25
54918;BME280;40818;50.562;7.454;2023-05-25T10:03:34;98623.13;;;21.41;43.23
54918;BME280;40818;50.562;7.454;2023-05-25T10:13:43;98628.50;;;21.49;41.97
54918;BME280;40818;50.562;7.454;2023-05-25T10:23:50;98616.38;;;23.42;43.71
54918;BME280;40818;50.562;7.454;2023-05-25T10:33:58;98622.16;;;24.05;41.31
54918;BME280;40818;50.562;7.454;2023-05-25T10:44:02;98623.13;;;24.62;40.30
54918;BME280;40818;50.562;7.454;2023-05-25T10:54:12;98619.34;;;25.83;39.09
54918;BME280;40818;50.562;7.454;2023-05-25T11:04:18;98607.00;;;27.27;38.99
54918;BME280;40818;50.562;7.454;2023-05-25T11:14:27;98610.38;;;27.20;36.54
54918;BME280;40818;50.562;7.454;2023-05-25T11:24:31;98598.06;;;27.19;34.62
54918;BME280;40818;50.562;7.454;2023-05-25T11:34:37;98589.28;;;28.20;35.33
54918;BME280;40818;50.562;7.454;2023-05-25T11:44:41;98578.50;;;27.42;33.47
54918;BME280;40818;50.562;7.454;2023-05-25T11:54:47;98571.69;;;29.44;35.13
54918;BME280;40818;50.562;7.454;2023-05-25T12:04:53;98568.06;;;30.33;32.83
54918;BME280;40818;50.562;7.454;2023-05-25T12:14:59;98563.34;;;31.20;29.66
54918;BME280;40818;50.562;7.454;2023-05-25T12:25:05;98567.56;;;29.28;30.13
54918;BME280;40818;50.562;7.454;2023-05-25T12:35:12;98548.13;;;28.65;32.26
54918;BME280;40818;50.562;7.454;2023-05-25T12:45:15;98554.84;;;26.04;34.46
54918;BME280;40818;50.562;7.454;2023-05-25T12:55:23;98556.19;;;25.22;36.71
54918;BME280;40818;50.562;7.454;2023-05-25T13:05:31;98550.81;;;24.68;38.28
54918;BME280;40818;50.562;7.454;2023-05-25T13:15:38;98542.78;;;24.84;38.33
54918;BME280;40818;50.562;7.454;2023-05-25T13:25:42;98530.72;;;25.05;38.83
54918;BME280;40818;50.562;7.454;2023-05-25T13:35:48;98526.94;;;24.51;40.03
54918;BME280;40818;50.562;7.454;2023-05-25T13:46:07;98525.81;;;23.47;43.03
54918;BME280;40818;50.562;7.454;2023-05-25T13:56:13;98525.31;;;23.51;43.00
54918;BME280;40818;50.562;7.454;2023-05-25T14:06:17;98531.50;;;23.09;45.95
54918;BME280;40818;50.562;7.454;2023-05-25T14:16:23;98525.16;;;22.86;44.85
54918;BME280;40818;50.562;7.454;2023-05-25T14:26:26;98529.78;;;22.92;46.30
54918;BME280;40818;50.562;7.454;2023-05-25T14:36:32;98526.94;;;21.98;46.94
54918;BME280;40818;50.562;7.454;2023-05-25T14:46:37;98526.84;;;21.18;48.38
54918;BME280;40818;50.562;7.454;2023-05-25T15:13:37;98541.25;;;20.01;50.97
54918;BME280;40818;50.562;7.454;2023-05-25T15:23:41;98528.09;;;19.71;50.83
54918;BME280;40818;50.562;7.454;2023-05-25T15:33:48;98537.88;;;19.20;53.64
54918;BME280;40818;50.562;7.454;2023-05-25T15:43:53;98538.59;;;18.82;53.09
54918;BME280;40818;50.562;7.454;2023-05-25T15:54:00;98534.81;;;18.74;54.00
54918;BME280;40818;50.562;7.454;2023-05-25T16:04:03;98527.56;;;18.57;53.46
54918;BME280;40818;50.562;7.454;2023-05-25T16:14:10;98533.41;;;18.39;53.57
54918;BME280;40818;50.562;7.454;2023-05-25T16:24:13;98537.69;;;18.10;53.58
54918;BME280;40818;50.562;7.454;2023-05-25T16:34:19;98540.38;;;17.87;53.95
54918;BME280;40818;50.562;7.454;2023-05-25T16:44:23;98539.44;;;18.09;53.68
54918;BME280;40818;50.562;7.454;2023-05-25T16:54:29;98537.16;;;18.16;52.99
54918;BME280;40818;50.562;7.454;2023-05-25T17:04:32;98525.22;;;18.12;53.30
54918;BME280;40818;50.562;7.454;2023-05-25T17:14:38;98527.34;;;17.64;53.95
54918;BME280;40818;50.562;7.454;2023-05-25T17:24:42;98538.97;;;17.06;55.72
54918;BME280;40818;50.562;7.454;2023-05-25T17:34:48;98551.13;;;16.85;55.94
54918;BME280;40818;50.562;7.454;2023-05-25T17:44:51;98545.41;;;16.46;57.51
54918;BME280;40818;50.562;7.454;2023-05-25T17:54:57;98546.34;;;16.33;58.70
54918;BME280;40818;50.562;7.454;2023-05-25T18:05:01;98549.38;;;16.04;59.48
54918;BME280;40818;50.562;7.454;2023-05-25T18:15:08;98561.22;;;15.86;60.56
54918;BME280;40818;50.562;7.454;2023-05-25T18:25:12;98559.78;;;15.58;62.24
54918;BME280;40818;50.562;7.454;2023-05-25T18:35:18;98560.84;;;15.18;65.94
54918;BME280;40818;50.562;7.454;2023-05-25T18:45:21;98569.06;;;15.00;66.84
54918;BME280;40818;50.562;7.454;2023-05-25T18:55:28;98565.03;;;14.71;69.31
54918;BME280;40818;50.562;7.454;2023-05-25T19:05:31;98575.38;;;14.46;70.14
54918;BME280;40818;50.562;7.454;2023-05-25T19:15:37;98577.75;;;14.24;71.11
54918;BME280;40818;50.562;7.454;2023-05-25T19:25:41;98599.31;;;14.00;72.28
54918;BME280;40818;50.562;7.454;2023-05-25T19:35:47;98610.38;;;13.63;74.41
54918;BME280;40818;50.562;7.454;2023-05-25T19:45:50;98618.09;;;13.38;75.02
54918;BME280;40818;50.562;7.454;2023-05-25T19:55:57;98622.75;;;13.18;76.52
54918;BME280;40818;50.562;7.454;2023-05-25T20:06:02;98647.47;;;12.68;81.66
54918;BME280;40818;50.562;7.454;2023-05-25T20:16:08;98642.06;;;12.42;81.61
54918;BME280;40818;50.562;7.454;2023-05-25T20:26:12;98656.38;;;12.35;81.02
54918;BME280;40818;50.562;7.454;2023-05-25T20:36:18;98662.19;;;12.24;81.78
54918;BME280;40818;50.562;7.454;2023-05-25T20:46:22;98660.97;;;11.83;86.00
54918;BME280;40818;50.562;7.454;2023-05-25T20:56:28;98663.41;;;11.54;88.43
54918;BME280;40818;50.562;7.454;2023-05-25T21:06:31;98673.59;;;11.09;92.78
54918;BME280;40818;50.562;7.454;2023-05-25T21:16:38;98683.03;;;10.77;95.79
54918;BME280;40818;50.562;7.454;2023-05-25T21:26:41;98675.19;;;10.61;95.84
54918;BME280;40818;50.562;7.454;2023-05-25T21:36:48;98674.19;;;10.29;100.00
54918;BME280;40818;50.562;7.454;2023-05-25T21:46:51;98668.97;;;10.11;100.00
54918;BME280;40818;50.562;7.454;2023-05-25T21:56:57;98681.69;;;9.98;100.00
54918;BME280;40818;50.562;7.454;2023-05-25T22:07:01;98681.91;;;9.94;100.00
54918;BME280;40818;50.562;7.454;2023-05-25T22:17:07;98683.59;;;9.95;100.00
54918;BME280;40818;50.562;7.454;2023-05-25T22:27:10;98684.66;;;9.90;99.13
54918;BME280;40818;50.562;7.454;2023-05-25T22:37:16;98682.97;;;9.89;98.84
54918;BME280;40818;50.562;7.454;2023-05-25T22:47:20;98676.13;;;9.88;97.50
54918;BME280;40818;50.562;7.454;2023-05-25T22:57:26;98688.16;;;9.89;96.07
54918;BME280;40818;50.562;7.454;2023-05-25T23:07:29;98696.94;;;9.87;95.70
54918;BME280;40818;50.562;7.454;2023-05-25T23:17:36;98700.66;;;9.81;95.16
54918;BME280;40818;50.562;7.454;2023-05-25T23:27:39;98693.31;;;9.72;95.56
54918;BME280;40818;50.562;7.454;2023-05-25T23:37:45;98676.53;;;9.60;98.15
54918;BME280;40818;50.562;7.454;2023-05-25T23:47:49;98689.09;;;9.50;98.17
54918;BME280;40818;50.562;7.454;2023-05-25T23:57:55;98691.69;;;9.50;95.47
